首页
METAR-TAF:

METAR-TAF

机场 :

Prairie du Chien Municipal Airport

Prairie du Chien, 威斯康辛州, 美国

纬度: 43-01-19N, 经度: 091-07-29W, 海拔: 201米

当前天气观测

该预报发布于22分钟前的23:55 UTC
风速7节,风向西
温度 19°C
湿度 78%
气压 1004 hPa
能見度: 16.1公里
多云层高于4800英尺
多云层高于6000英尺
阴天层高于8500英尺
小雨

METAR: KPDC 242355Z AUTO 26007KT 10SM -RA BKN048 BKN060 OVC085 19/15 A2966 RMK AO2 T01880145 10251 20183

时间: 19:17 (00:17 UTC)


TAF: 丢失

超过4000个机场的气象观测和天气预报(METAR&TAF报告)。

可查询的气象台以黄色和红色小点在地图上表示。

将鼠标移到小点上方,可查看气象台名称。

然后点击查看天气观测和预报。

如需切换地图:点击带黑十字的绿色按钮放大地图;点击带横线的绿色按钮缩小地图;或者点击绿色箭头查看邻近地区的地图。


METAR-TAF: